No particular awareness of the weather is required.    There are no Weather-warnings


Meteo18 Weather Cam more information Meteo18 Weather Cam


Thunder radar more information blitzortung!


Rain radar more information rain snow radar


Visit our other weather sites:

Template documentation
and downloads

And another site



Weather Underground History page Text

Daily Summary for July 16, 2017 Units:  Metric    English   Both
« Previous Day
Next Day »
Daily Weekly Monthly Yearly Custom
  High: Low: Average:
Temperature: -17.8 °C -10.1 °C -5.4 °C
Dew Point: -17.8 °C -11.3 °C -10.1 °C
Humidity: Humidity % 42 % 61 %
Wind Speed: 0 km/h 0 km/h 5 km/h
Wind Gust: 0 km/h - -
Wind:- - SE
Pressure: 0 hPa 34611.7 hPa -
Precipitation: 0 mm    
Historical Graphs
 
 
Tabular Data for July 16, 2017
Time Temperature Dew Point Pressure Wind Wind Speed Wind Gust Humidity Rainfall Rate (Hourly)
-17.8 °C -17.8 °C 0 hPa Calm     Humidity % 0 mm
00:02 -8.2 °C -11 °C 34716.7 hPa Calm     72 % 0 mm
00:07 -8.2 °C -11.1 °C 34716.7 hPa Calm     72 % 0 mm
00:12 -8.3 °C -11 °C 34716.7 hPa Calm   2.6 km/h 73 % 0 mm
00:17 -8.4 °C -11 °C 34716.7 hPa Calm   2.6 km/h 74 % 0 mm
00:22 -8.4 °C -11 °C 34716.7 hPa Calm   2.6 km/h 74 % 0 mm
00:32 -8.3 °C -11 °C 34716.7 hPa Calm   2.6 km/h 73 % 0 mm
00:37 -8.4 °C -11 °C 34716.7 hPa Calm   2.6 km/h 74 % 0 mm
00:42 -8.4 °C -10.9 °C 34716.7 hPa Calm   2.6 km/h 75 % 0 mm
00:52 -8.6 °C -11.1 °C 34703.1 hPa Calm     75 % 0 mm
00:57 -8.7 °C -11 °C 34703.1 hPa WNW 2.6 km/h 2.6 km/h 76 % 0 mm
01:02 -8.7 °C -10.9 °C 34703.1 hPa WNW 2.6 km/h 2.6 km/h 77 % 0 mm
01:12 -8.8 °C -10.9 °C 34703.1 hPa Calm   5.1 km/h 78 % 0 mm
01:17 -8.8 °C -10.9 °C 34703.1 hPa WNW 2.6 km/h 5.1 km/h 78 % 0 mm
01:22 -8.9 °C -11.1 °C 34716.7 hPa Calm   5.1 km/h 78 % 0 mm
01:27 -8.9 °C -10.9 °C 34703.1 hPa Calm   2.6 km/h 79 % 0 mm
01:32 -8.9 °C -10.9 °C 34716.7 hPa Calm   2.6 km/h 79 % 0 mm
01:37 -9 °C -11 °C 34716.7 hPa Calm     79 % 0 mm
01:42 -9 °C -11 °C 34703.1 hPa Calm     79 % 0 mm
01:47 -9.1 °C -11.1 °C 34703.1 hPa Calm     79 % 0 mm
01:52 -9.1 °C -11.1 °C 34703.1 hPa Calm   2.6 km/h 79 % 0 mm
01:57 -9 °C -11 °C 34703.1 hPa Calm   2.6 km/h 79 % 0 mm
02:02 -9.1 °C -11.1 °C 34703.1 hPa North 2.6 km/h 2.6 km/h 79 % 0 mm
02:12 -9.1 °C -11 °C 34716.7 hPa Calm   2.6 km/h 80 % 0 mm
02:17 -9.2 °C -11.1 °C 34716.7 hPa NNE 2.6 km/h 2.6 km/h 80 % 0 mm
02:22 -9.2 °C -11.1 °C 34716.7 hPa Calm   2.6 km/h 80 % 0 mm
02:27 -9.2 °C -11 °C 34716.7 hPa Calm   2.6 km/h 81 % 0 mm
02:32 -9.3 °C -11.1 °C 34716.7 hPa Calm   2.6 km/h 81 % 0 mm
02:37 -9.4 °C -11.1 °C 34703.1 hPa Calm   2.6 km/h 82 % 0 mm
02:42 -9.5 °C -11.1 °C 34703.1 hPa WNW 2.6 km/h 2.6 km/h 83 % 0 mm
02:47 -9.6 °C -11.2 °C 34716.7 hPa Calm   2.6 km/h 83 % 0 mm
02:52 -9.6 °C -11.2 °C 34703.1 hPa Calm   2.6 km/h 83 % 0 mm
02:57 -9.6 °C -11.1 °C 34716.7 hPa Calm   2.6 km/h 84 % 0 mm
03:02 -9.6 °C -11.1 °C 34716.7 hPa Calm     84 % 0 mm
03:07 -9.4 °C -11 °C 34716.7 hPa Calm     83 % 0 mm
03:12 -9.4 °C -11.1 °C 34716.7 hPa Calm     82 % 0 mm
03:17 -9.4 °C -11.1 °C 34703.1 hPa Calm     82 % 0 mm
03:22 -9.5 °C -11.1 °C 34703.1 hPa Calm     83 % 0 mm
03:27 -9.6 °C -11.2 °C 34703.1 hPa Calm     83 % 0 mm
03:32 -9.6 °C -11.1 °C 34716.7 hPa Calm     84 % 0 mm
03:37 -9.7 °C -11.2 °C 34716.7 hPa Calm     84 % 0 mm
03:42 -9.8 °C -11.2 °C 34716.7 hPa Calm     85 % 0 mm
03:47 -9.9 °C -11.3 °C 34716.7 hPa Calm     85 % 0 mm
03:52 -9.9 °C -11.2 °C 34716.7 hPa Calm     86 % 0 mm
03:57 -9.9 °C -11.2 °C 34716.7 hPa Calm     86 % 0 mm
04:02 -9.9 °C -11.2 °C 34716.7 hPa Calm     86 % 0 mm
04:12 -9.8 °C -11.1 °C 34716.7 hPa Calm     86 % 0 mm
04:17 -9.8 °C -11.2 °C 34716.7 hPa Calm     85 % 0 mm
04:22 -9.9 °C -11.3 °C 34716.7 hPa Calm     85 % 0 mm
04:32 -9.8 °C -11.3 °C 34716.7 hPa Calm     84 % 0 mm
04:37 -9.8 °C -11.3 °C 34716.7 hPa Calm     84 % 0 mm
04:42 -9.8 °C -11.3 °C 34716.7 hPa Calm     84 % 0 mm
04:47 -9.8 °C -11.3 °C 34716.7 hPa Calm     84 % 0 mm
04:52 -9.8 °C -11.3 °C 34716.7 hPa Calm     84 % 0 mm
04:57 -9.8 °C -11.3 °C 34716.7 hPa Calm     84 % 0 mm
05:02 -9.8 °C -11.3 °C 34716.7 hPa Calm     84 % 0 mm
05:12 -9.9 °C -11.3 °C 34716.7 hPa Calm     85 % 0 mm
05:17 -9.9 °C -11.3 °C 34716.7 hPa Calm     85 % 0 mm
05:22 -9.9 °C -11.3 °C 34716.7 hPa Calm     85 % 0 mm
05:32 -10.1 °C -11.3 °C 34716.7 hPa Calm     86 % 0 mm
05:42 -10.1 °C -11.3 °C 34716.7 hPa Calm     86 % 0 mm
05:47 -10.1 °C -11.3 °C 34716.7 hPa Calm     86 % 0 mm
05:52 -10.1 °C -11.3 °C 34716.7 hPa Calm     86 % 0 mm
05:57 -9.9 °C -11.1 °C 34716.7 hPa Calm     87 % 0 mm
06:02 -9.9 °C -11.1 °C 34716.7 hPa Calm     87 % 0 mm
06:12 -9.8 °C -11 °C 34716.7 hPa Calm     87 % 0 mm
06:17 -9.8 °C -11.1 °C 34716.7 hPa Calm     86 % 0 mm
06:22 -9.8 °C -11.1 °C 34716.7 hPa Calm     86 % 0 mm
06:32 -9.6 °C -10.8 °C 34716.7 hPa Calm     87 % 0 mm
06:42 -9.5 °C -10.7 °C 34716.7 hPa Calm     87 % 0 mm
06:47 -9.5 °C -10.8 °C 34716.7 hPa Calm     86 % 0 mm
06:52 -9.4 °C -10.7 °C 34716.7 hPa Calm     86 % 0 mm
06:57 -9.4 °C -10.6 °C 34726.8 hPa Calm     87 % 0 mm
07:02 -9.4 °C -10.8 °C 34726.8 hPa Calm     85 % 0 mm
07:12 -9.4 °C -10.6 °C 34726.8 hPa Calm     87 % 0 mm
07:17 -9.4 °C -10.6 °C 34726.8 hPa Calm     87 % 0 mm
07:22 -9.3 °C -10.4 °C 34726.8 hPa Calm     88 % 0 mm
07:27 -9.3 °C -10.3 °C 34726.8 hPa Calm     89 % 0 mm
07:32 -9.3 °C -10.4 °C 34726.8 hPa Calm     88 % 0 mm
07:42 -9.1 °C -10.3 °C 34740.4 hPa Calm     87 % 0 mm
07:52 -9 °C -10.4 °C 34740.4 hPa Calm     85 % 0 mm
07:57 -8.8 °C -10.2 °C 34740.4 hPa Calm     85 % 0 mm
08:02 -8.7 °C -10.2 °C 34740.4 hPa Calm     84 % 0 mm
08:12 -8.2 °C -9.9 °C 34740.4 hPa Calm     82 % 0 mm
08:17 -8 °C -9.9 °C 34740.4 hPa Calm     80 % 0 mm
08:22 -7.9 °C -10.1 °C 34740.4 hPa Calm     78 % 0 mm
08:32 -7.7 °C -10.1 °C 34740.4 hPa Calm     76 % 0 mm
08:37 -7.6 °C -10.1 °C 34740.4 hPa Calm     75 % 0 mm
08:42 -7.4 °C -10.1 °C 34740.4 hPa Calm     74 % 0 mm
08:47 -7.3 °C -10 °C 34740.4 hPa Calm     73 % 0 mm
08:52 -7.1 °C -10.3 °C 34740.4 hPa Calm     69 % 0 mm
08:57 -6.9 °C -10.3 °C 34740.4 hPa Calm     68 % 0 mm
09:02 -6.7 °C -10.2 °C 34740.4 hPa Calm     67 % 0 mm
09:12 -6 °C -10.1 °C 34740.4 hPa Calm     63 % 0 mm
09:17 -5.8 °C -10.1 °C 34740.4 hPa Calm     61 % 0 mm
09:27 -5.4 °C -9.9 °C 34740.4 hPa Calm   5.1 km/h 60 % 0 mm
09:32 -5.4 °C -10.2 °C 34740.4 hPa SSW 2.6 km/h 5.1 km/h 58 % 0 mm
09:37 -5.1 °C -10.1 °C 34740.4 hPa Calm   5.1 km/h 57 % 0 mm
09:42 -5.1 °C -10.6 °C 34740.4 hPa SSW 2.6 km/h 5.1 km/h 54 % 0 mm
09:47 -5.1 °C -10.5 °C 34740.4 hPa Calm   7.7 km/h 54 % 0 mm
09:52 -4.8 °C -10.4 °C 34740.4 hPa South 2.6 km/h 7.7 km/h 53 % 0 mm
09:57 -4.8 °C -10.6 °C 34740.4 hPa SSW 2.6 km/h 7.7 km/h 52 % 0 mm
10:02 -4.8 °C -10.6 °C 34740.4 hPa SSW 5.1 km/h 7.7 km/h 52 % 0 mm
10:12 -4.8 °C -10.6 °C 34740.4 hPa Calm   7.7 km/h 52 % 0 mm
10:17 -4.7 °C -10.7 °C 34740.4 hPa SW 2.6 km/h 7.7 km/h 51 % 0 mm
10:22 -4.6 °C -10.5 °C 34740.4 hPa SSE 2.6 km/h 7.7 km/h 51 % 0 mm
10:27 -4.5 °C -10.5 °C 34740.4 hPa West 2.6 km/h 7.7 km/h 51 % 0 mm
10:32 -4.4 °C -10.4 °C 34726.8 hPa Calm   7.7 km/h 51 % 0 mm
10:37 -4.1 °C -10.6 °C 34740.4 hPa NE 5.1 km/h 7.7 km/h 48 % 0 mm
10:42 -4.2 °C -10.7 °C 34726.8 hPa East 10.3 km/h 10.3 km/h 48 % 0 mm
10:47 -4.3 °C -10.8 °C 34726.8 hPa ESE 2.6 km/h 12.9 km/h 48 % 0 mm
10:52 -4.2 °C -10.3 °C 34726.8 hPa East 5.1 km/h 15.6 km/h 50 % 0 mm
11:02 -3.9 °C -10.6 °C 34726.8 hPa East 5.1 km/h 15.6 km/h 47 % 0 mm
11:12 -3.9 °C -10.7 °C 34726.8 hPa Calm   10.3 km/h 47 % 0 mm
11:17 -3.8 °C -10.5 °C 34726.8 hPa NNE 10.3 km/h 15.6 km/h 47 % 0 mm
11:22 -3.8 °C -10.6 °C 34726.8 hPa WSW 2.6 km/h 15.6 km/h 47 % 0 mm
11:27 -3.8 °C -10.3 °C 34726.8 hPa ENE 5.1 km/h 20.8 km/h 48 % 0 mm
11:32 -3.7 °C -10.4 °C 34716.7 hPa ENE 12.9 km/h 20.8 km/h 47 % 0 mm
11:42 -3.7 °C -10.4 °C 34716.7 hPa ENE 7.7 km/h 23.3 km/h 47 % 0 mm
11:52 -3.7 °C -10.3 °C 34726.8 hPa East 7.7 km/h 20.8 km/h 48 % 0 mm
11:57 -3.6 °C -10.3 °C 34716.7 hPa East 2.6 km/h 28.5 km/h 47 % 0 mm
12:02 -3.5 °C -10.1 °C 34716.7 hPa ESE 5.1 km/h 28.5 km/h 48 % 0 mm
12:12 -3.4 °C -10.3 °C 34716.7 hPa NNW 7.7 km/h 20.8 km/h 46 % 0 mm
12:17 -3.5 °C -10.4 °C 34716.7 hPa SSE 2.6 km/h 23.3 km/h 46 % 0 mm
12:22 -3.2 °C -10 °C 34716.7 hPa ENE 10.3 km/h 23.3 km/h 47 % 0 mm
12:32 -3.3 °C -10.2 °C 34716.7 hPa ENE 10.3 km/h 23.3 km/h 46 % 0 mm
12:42 -3.1 °C -10.2 °C 34716.7 hPa ENE 10.3 km/h 20.8 km/h 45 % 0 mm
12:52 -2.9 °C -9.9 °C 34716.7 hPa NNW 2.6 km/h 23.3 km/h 46 % 0 mm
13:02 -2.9 °C -9.9 °C 34703.1 hPa ENE 5.1 km/h 25.9 km/h 46 % 0 mm
13:12 -2.8 °C -9.8 °C 34703.1 hPa North 18.2 km/h 20.8 km/h 46 % 0 mm
13:17 -2.7 °C -9.9 °C 34703.1 hPa North 23.3 km/h 33.6 km/h 45 % 0 mm
13:22 -2.8 °C -9.9 °C 34703.1 hPa NW 12.9 km/h 36.2 km/h 45 % 0 mm
13:32 -2.9 °C -9.9 °C 34703.1 hPa Calm   33.6 km/h 46 % 0 mm
13:42 -2.7 °C -9.9 °C 34703.1 hPa West 2.6 km/h 25.9 km/h 45 % 0 mm
13:47 -2.8 °C -9.6 °C 34693 hPa Calm   25.9 km/h 47 % 0 mm
13:52 -2.6 °C -9.6 °C 34693 hPa Calm   25.9 km/h 46 % 0 mm
13:57 -2.3 °C -9.4 °C 34693 hPa NNE 31.1 km/h 31.1 km/h 46 % 0 mm
14:02 -2.7 °C -9.7 °C 34693 hPa ESE 7.7 km/h 33.6 km/h 46 % 0 mm
14:07 -2.7 °C -9.7 °C 34693 hPa ENE 15.6 km/h 33.6 km/h 46 % 0 mm
14:12 -2.7 °C -9.3 °C 34693 hPa NE 20.8 km/h 33.6 km/h 48 % 0 mm
14:17 -2.5 °C -9.6 °C 34693 hPa NE 20.8 km/h 31.1 km/h 46 % 0 mm
14:22 -2.6 °C -9.4 °C 34693 hPa NNE 7.7 km/h 41.4 km/h 47 % 0 mm
14:27 -2.4 °C -9.4 °C 34693 hPa NE 7.7 km/h 41.4 km/h 46 % 0 mm
14:32 -2.4 °C -9.3 °C 34693 hPa NE 7.7 km/h 28.5 km/h 47 % 0 mm
14:37 -2.4 °C -9.3 °C 34682.8 hPa ENE 20.8 km/h 28.5 km/h 47 % 0 mm
14:42 -2.3 °C -9.3 °C 34682.8 hPa NE 12.9 km/h 28.5 km/h 46 % 0 mm
14:47 -2.2 °C -9.2 °C 34682.8 hPa NE 2.6 km/h 28.5 km/h 46 % 0 mm
14:52 -2 °C -8.9 °C 34682.8 hPa North 18.2 km/h 31.1 km/h 47 % 0 mm
14:57 -2.1 °C -9.1 °C 34682.8 hPa NNE 12.9 km/h 31.1 km/h 46 % 0 mm
15:02 -2.2 °C -9.4 °C 34682.8 hPa ENE 10.3 km/h 31.1 km/h 45 % 0 mm
15:07 -2.2 °C -9.4 °C 34682.8 hPa ENE 10.3 km/h 25.9 km/h 45 % 0 mm
15:12 -2.2 °C -9.3 °C 34682.8 hPa ENE 12.9 km/h 25.9 km/h 46 % 0 mm
15:17 -2.2 °C -9.2 °C 34682.8 hPa NE 28.5 km/h 38.8 km/h 46 % 0 mm
15:22 -2.2 °C -9.4 °C 34682.8 hPa East 10.3 km/h 38.8 km/h 45 % 0 mm
15:27 -2.2 °C -9.2 °C 34682.8 hPa NNE 18.2 km/h 31.1 km/h 46 % 0 mm
15:32 -2.1 °C -9.2 °C 34682.8 hPa NW 5.1 km/h 31.1 km/h 46 % 0 mm
15:37 -2 °C -9.3 °C 34682.8 hPa Calm   33.6 km/h 45 % 0 mm
15:42 -1.8 °C -9.1 °C 34682.8 hPa East 10.3 km/h 33.6 km/h 45 % 0 mm
15:47 -1.6 °C -9.3 °C 34682.8 hPa NW 15.6 km/h 33.6 km/h 43 % 0 mm
15:52 -1.7 °C -9.2 °C 34682.8 hPa ENE 15.6 km/h 23.3 km/h 44 % 0 mm
15:57 -1.8 °C -9.1 °C 34669.3 hPa ENE 20.8 km/h 23.3 km/h 45 % 0 mm
16:02 -2.1 °C -9.3 °C 34669.3 hPa NE 12.9 km/h 28.5 km/h 45 % 0 mm
16:07 -2.3 °C -9.5 °C 34682.8 hPa NNW 15.6 km/h 28.5 km/h 45 % 0 mm
16:12 -2.2 °C -9.4 °C 34669.3 hPa NE 12.9 km/h 28.5 km/h 45 % 0 mm
16:17 -1.9 °C -9.2 °C 34669.3 hPa NNE 15.6 km/h 20.8 km/h 45 % 0 mm
16:22 -1.8 °C -9.1 °C 34669.3 hPa East 20.8 km/h 31.1 km/h 45 % 0 mm
16:27 -1.9 °C -9.2 °C 34669.3 hPa ENE 10.3 km/h 31.1 km/h 45 % 0 mm
16:32 -1.8 °C -9.1 °C 34669.3 hPa West 5.1 km/h 31.1 km/h 45 % 0 mm
16:37 -1.7 °C -9.2 °C 34669.3 hPa NE 5.1 km/h 28.5 km/h 44 % 0 mm
16:42 -1.8 °C -9.1 °C 34669.3 hPa NNE 18.2 km/h 28.5 km/h 45 % 0 mm
16:47 -2 °C -9.3 °C 34659.1 hPa NNE 12.9 km/h 28.5 km/h 45 % 0 mm
16:52 -2.2 °C -9.4 °C 34659.1 hPa NE 12.9 km/h 28.5 km/h 45 % 0 mm
16:57 -1.9 °C -9.2 °C 34659.1 hPa NE 12.9 km/h 25.9 km/h 45 % 0 mm
17:02 -1.7 °C -9 °C 34659.1 hPa North 10.3 km/h 25.9 km/h 45 % 0 mm
17:07 -1.5 °C -9 °C 34659.1 hPa North 10.3 km/h 25.9 km/h 44 % 0 mm
17:12 -1.7 °C -9.6 °C 34659.1 hPa NE 10.3 km/h 23.3 km/h 42 % 0 mm
17:17 -1.6 °C -9.3 °C 34659.1 hPa NW 12.9 km/h 23.3 km/h 43 % 0 mm
17:22 -1.6 °C -9.1 °C 34645.6 hPa NNE 7.7 km/h 23.3 km/h 44 % 0 mm
17:27 -1.6 °C -9.3 °C 34645.6 hPa NNE 12.9 km/h 33.6 km/h 43 % 0 mm
17:32 -1.7 °C -9.4 °C 34645.6 hPa NW 12.9 km/h 33.6 km/h 43 % 0 mm
17:37 -1.5 °C -9.2 °C 34645.6 hPa NNW 7.7 km/h 36.2 km/h 43 % 0 mm
17:42 -1.7 °C -9.4 °C 34645.6 hPa NE 18.2 km/h 36.2 km/h 43 % 0 mm
17:47 -1.8 °C -9.3 °C 34645.6 hPa NE 10.3 km/h 36.2 km/h 44 % 0 mm
17:52 -1.8 °C -9.5 °C 34645.6 hPa NNE 18.2 km/h 33.6 km/h 43 % 0 mm
17:57 -1.8 °C -9.3 °C 34645.6 hPa Calm   31.1 km/h 44 % 0 mm
18:02 -1.8 °C -9.3 °C 34645.6 hPa North 7.7 km/h 25.9 km/h 44 % 0 mm
18:07 -1.8 °C -9.3 °C 34645.6 hPa West 2.6 km/h 25.9 km/h 44 % 0 mm
18:12 -1.7 °C -8.9 °C 34645.6 hPa NE 23.3 km/h 25.9 km/h 45 % 0 mm
18:17 -1.6 °C -9.3 °C 34635.4 hPa NE 25.9 km/h 25.9 km/h 43 % 0 mm
18:22 -1.7 °C -9.2 °C 34635.4 hPa NNW 7.7 km/h 28.5 km/h 44 % 0 mm
18:27 -1.7 °C -9.4 °C 34635.4 hPa North 5.1 km/h 36.2 km/h 43 % 0 mm
18:32 -1.7 °C -9.6 °C 34635.4 hPa NNE 7.7 km/h 36.2 km/h 42 % 0 mm
18:37 -1.7 °C -9.6 °C 34635.4 hPa North 2.6 km/h 31.1 km/h 42 % 0 mm
18:42 -1.6 °C -9.3 °C 34635.4 hPa NNE 12.9 km/h 25.9 km/h 43 % 0 mm
18:47 -1.6 °C -9.3 °C 34635.4 hPa Calm   28.5 km/h 43 % 0 mm
18:57 -2 °C -9.3 °C 34635.4 hPa NW 10.3 km/h 31.1 km/h 45 % 0 mm
19:02 -2.2 °C -9.4 °C 34635.4 hPa NNW 18.2 km/h 31.1 km/h 45 % 0 mm
19:07 -2.3 °C -9.3 °C 34625.2 hPa NNW 12.9 km/h 31.1 km/h 46 % 0 mm
19:12 -2.3 °C -9.2 °C 34625.2 hPa NNW 18.2 km/h 23.3 km/h 47 % 0 mm
19:17 -2.4 °C -9.1 °C 34625.2 hPa NW 15.6 km/h 20.8 km/h 48 % 0 mm
19:22 -2.4 °C -9.1 °C 34625.2 hPa WNW 7.7 km/h 20.8 km/h 48 % 0 mm
19:27 -2.3 °C -9.2 °C 34625.2 hPa North 10.3 km/h 20.8 km/h 47 % 0 mm
19:32 -2.4 °C -9.2 °C 34625.2 hPa NNW 10.3 km/h 18.2 km/h 47 % 0 mm
19:42 -2.3 °C -9.2 °C 34625.2 hPa North 10.3 km/h 15.6 km/h 47 % 0 mm
19:47 -2.3 °C -9 °C 34625.2 hPa North 10.3 km/h 20.8 km/h 48 % 0 mm
19:52 -2.3 °C -8.9 °C 34611.7 hPa NE 5.1 km/h 20.8 km/h 48 % 0 mm
19:57 -2.3 °C -9 °C 34611.7 hPa NE 5.1 km/h 20.8 km/h 48 % 0 mm
20:02 -2.3 °C -9 °C 34611.7 hPa NE 10.3 km/h 20.8 km/h 48 % 0 mm
20:07 -2.2 °C -8.9 °C 34611.7 hPa NE 7.7 km/h 20.8 km/h 48 % 0 mm
20:12 -2.1 °C -9 °C 34611.7 hPa NNE 7.7 km/h 15.6 km/h 47 % 0 mm
20:17 -2.1 °C -9.2 °C 34611.7 hPa North 12.9 km/h 15.6 km/h 46 % 0 mm
20:22 -2.2 °C -9.1 °C 34625.2 hPa NE 12.9 km/h 23.3 km/h 47 % 0 mm
20:27 -2.3 °C -9.2 °C 34625.2 hPa NE 7.7 km/h 23.3 km/h 47 % 0 mm
20:32 -2.3 °C -9.2 °C 34625.2 hPa NNE 5.1 km/h 23.3 km/h 47 % 0 mm
20:37 -2.3 °C -9 °C 34625.2 hPa North 10.3 km/h 20.8 km/h 48 % 0 mm
20:42 -2.3 °C -9 °C 34625.2 hPa NNE 5.1 km/h 20.8 km/h 48 % 0 mm
20:47 -2.3 °C -9 °C 34611.7 hPa NE 10.3 km/h 20.8 km/h 48 % 0 mm
20:57 -2.4 °C -9.1 °C 34611.7 hPa NNE 5.1 km/h 12.9 km/h 48 % 0 mm
21:02 -2.5 °C -9 °C 34611.7 hPa Calm   12.9 km/h 49 % 0 mm
21:07 -2.7 °C -9.1 °C 34611.7 hPa NE 5.1 km/h 10.3 km/h 49 % 0 mm
21:12 -2.8 °C -9.1 °C 34611.7 hPa NE 7.7 km/h 10.3 km/h 50 % 0 mm
21:17 -2.9 °C -9.1 °C 34611.7 hPa NNE 2.6 km/h 10.3 km/h 51 % 0 mm
21:22 -3.1 °C -9 °C 34611.7 hPa NE 5.1 km/h 10.3 km/h 52 % 0 mm
21:27 -3.2 °C -8.9 °C 34611.7 hPa NE 5.1 km/h 10.3 km/h 53 % 0 mm
21:32 -3.4 °C -8.9 °C 34625.2 hPa ENE 2.6 km/h 7.7 km/h 54 % 0 mm
21:37 -3.6 °C -8.9 °C 34625.2 hPa Calm   7.7 km/h 55 % 0 mm
21:42 -3.7 °C -8.9 °C 34625.2 hPa Calm   7.7 km/h 56 % 0 mm
21:47 -3.7 °C -8.9 °C 34625.2 hPa Calm   5.1 km/h 56 % 0 mm
21:52 -3.8 °C -8.9 °C 34625.2 hPa Calm     57 % 0 mm
21:57 -3.9 °C -9 °C 34625.2 hPa Calm     57 % 0 mm
22:02 -4 °C -8.9 °C 34625.2 hPa Calm     58 % 0 mm
22:07 -4.1 °C -9 °C 34625.2 hPa Calm     58 % 0 mm
22:12 -4.3 °C -9 °C 34625.2 hPa Calm     59 % 0 mm
22:17 -4.4 °C -9 °C 34625.2 hPa Calm     60 % 0 mm
22:22 -4.6 °C -9 °C 34625.2 hPa Calm     61 % 0 mm
22:27 -4.8 °C -9.1 °C 34625.2 hPa NW 2.6 km/h 2.6 km/h 62 % 0 mm
22:37 -4.9 °C -8.9 °C 34625.2 hPa Calm   2.6 km/h 64 % 0 mm
22:42 -5.1 °C -9.1 °C 34625.2 hPa NW 2.6 km/h 2.6 km/h 64 % 0 mm
22:52 -5.2 °C -9.1 °C 34625.2 hPa NNW 2.6 km/h 7.7 km/h 65 % 0 mm
22:57 -5.2 °C -9.1 °C 34625.2 hPa NNW 5.1 km/h 7.7 km/h 65 % 0 mm
23:02 -5.2 °C -9.1 °C 34625.2 hPa NNW 5.1 km/h 7.7 km/h 65 % 0 mm
23:07 -5.3 °C -9.2 °C 34625.2 hPa Calm   5.1 km/h 65 % 0 mm
23:12 -5.4 °C -9.2 °C 34625.2 hPa Calm   5.1 km/h 66 % 0 mm
23:22 -5.6 °C -9.2 °C 34625.2 hPa NNW 2.6 km/h 5.1 km/h 67 % 0 mm
23:27 -5.6 °C -9.2 °C 34625.2 hPa NNW 2.6 km/h 5.1 km/h 67 % 0 mm
23:32 -5.6 °C -9.2 °C 34625.2 hPa Calm   5.1 km/h 67 % 0 mm
23:37 -5.8 °C -9.2 °C 34625.2 hPa Calm   5.1 km/h 68 % 0 mm
23:42 -5.9 °C -9.1 °C 34625.2 hPa Calm   5.1 km/h 70 % 0 mm
23:47 -6.2 °C -9.1 °C 34625.2 hPa WNW 2.6 km/h 2.6 km/h 72 % 0 mm
23:57 -6.3 °C -9.2 °C 34625.2 hPa WNW 5.1 km/h 5.1 km/h 72 % 0 mm
Meteo18
Compliments of Weather Underground - 4 mb

Script developed by  Jim McMurry - jmcmurry@mwt.net Adapted for the template by  Wim van der Kuil - Leuven-Template.eu

You find our weather info also at:

European Weather Network

Weather Underground

Equipment we use:

Weather-station
Davis Vue

Weather-program
Meteobridge

Weather-server
Raspberry PI 2 B+

Provider
1 and 1

Davis Vue

Meteobridge

Raspberry PI 2 B+

1 and 1